sensor_id;sensor_type;location;lat;lon;timestamp;P1;durP1;ratioP1;P2;durP2;ratioP2
34928;SDS011;21133;48.048;7.724;2022-09-21T00:01:37;2.00;;;1.90;;
34928;SDS011;21133;48.048;7.724;2022-09-21T00:04:03;2.10;;;1.90;;
34928;SDS011;21133;48.048;7.724;2022-09-21T00:06:30;7.50;;;2.87;;
34928;SDS011;21133;48.048;7.724;2022-09-21T00:08:57;1.47;;;1.20;;
34928;SDS011;21133;48.048;7.724;2022-09-21T00:11:24;1.90;;;1.80;;
34928;SDS011;21133;48.048;7.724;2022-09-21T00:13:55;5.90;;;1.80;;
34928;SDS011;21133;48.048;7.724;2022-09-21T00:16:21;3.43;;;2.30;;
34928;SDS011;21133;48.048;7.724;2022-09-21T00:18:48;1.63;;;1.60;;
34928;SDS011;21133;48.048;7.724;2022-09-21T00:21:14;3.50;;;2.20;;
34928;SDS011;21133;48.048;7.724;2022-09-21T00:23:41;2.13;;;1.93;;
34928;SDS011;21133;48.048;7.724;2022-09-21T00:26:11;1.43;;;1.33;;
34928;SDS011;21133;48.048;7.724;2022-09-21T00:28:38;4.73;;;1.90;;
34928;SDS011;21133;48.048;7.724;2022-09-21T00:31:05;7.90;;;2.07;;
34928;SDS011;21133;48.048;7.724;2022-09-21T00:33:31;1.70;;;1.70;;
34928;SDS011;21133;48.048;7.724;2022-09-21T00:36:07;1.97;;;1.87;;
34928;SDS011;21133;48.048;7.724;2022-09-21T00:38:34;10.40;;;1.97;;
34928;SDS011;21133;48.048;7.724;2022-09-21T00:41:01;2.37;;;1.77;;
34928;SDS011;21133;48.048;7.724;2022-09-21T00:43:27;5.77;;;1.33;;
34928;SDS011;21133;48.048;7.724;2022-09-21T00:45:59;1.83;;;1.30;;
34928;SDS011;21133;48.048;7.724;2022-09-21T00:48:26;4.43;;;1.97;;
34928;SDS011;21133;48.048;7.724;2022-09-21T00:50:53;3.13;;;1.57;;
34928;SDS011;21133;48.048;7.724;2022-09-21T00:53:21;2.60;;;1.60;;
34928;SDS011;21133;48.048;7.724;2022-09-21T00:55:48;1.83;;;1.73;;
34928;SDS011;21133;48.048;7.724;2022-09-21T00:58:18;1.73;;;1.20;;
34928;SDS011;21133;48.048;7.724;2022-09-21T01:00:45;1.50;;;1.40;;
34928;SDS011;21133;48.048;7.724;2022-09-21T01:03:11;1.83;;;1.73;;
34928;SDS011;21133;48.048;7.724;2022-09-21T01:05:37;1.83;;;1.63;;
34928;SDS011;21133;48.048;7.724;2022-09-21T01:08:03;0.97;;;0.97;;
34928;SDS011;21133;48.048;7.724;2022-09-21T01:10:39;1.37;;;1.27;;
34928;SDS011;21133;48.048;7.724;2022-09-21T01:13:12;1.37;;;1.27;;
34928;SDS011;21133;48.048;7.724;2022-09-21T01:18:34;1.30;;;1.20;;
34928;SDS011;21133;48.048;7.724;2022-09-21T01:21:14;1.07;;;1.07;;
34928;SDS011;21133;48.048;7.724;2022-09-21T01:23:47;3.30;;;1.53;;
34928;SDS011;21133;48.048;7.724;2022-09-21T01:26:16;1.87;;;1.77;;
34928;SDS011;21133;48.048;7.724;2022-09-21T01:31:24;1.70;;;1.60;;
34928;SDS011;21133;48.048;7.724;2022-09-21T01:33:52;1.83;;;1.50;;
34928;SDS011;21133;48.048;7.724;2022-09-21T01:36:20;2.30;;;1.50;;
34928;SDS011;21133;48.048;7.724;2022-09-21T01:38:49;1.10;;;1.10;;
34928;SDS011;21133;48.048;7.724;2022-09-21T01:41:16;2.97;;;1.43;;
34928;SDS011;21133;48.048;7.724;2022-09-21T01:43:50;1.23;;;1.13;;
34928;SDS011;21133;48.048;7.724;2022-09-21T01:46:20;1.23;;;1.23;;
34928;SDS011;21133;48.048;7.724;2022-09-21T01:48:52;2.50;;;1.27;;
34928;SDS011;21133;48.048;7.724;2022-09-21T01:51:19;1.43;;;1.20;;
34928;SDS011;21133;48.048;7.724;2022-09-21T01:53:55;7.87;;;1.83;;
34928;SDS011;21133;48.048;7.724;2022-09-21T01:59:02;1.17;;;1.17;;
34928;SDS011;21133;48.048;7.724;2022-09-21T02:01:31;1.30;;;1.20;;
34928;SDS011;21133;48.048;7.724;2022-09-21T02:04:00;2.63;;;1.37;;
34928;SDS011;21133;48.048;7.724;2022-09-21T02:06:28;4.33;;;1.60;;
34928;SDS011;21133;48.048;7.724;2022-09-21T02:08:55;4.20;;;1.03;;
34928;SDS011;21133;48.048;7.724;2022-09-21T02:11:21;0.80;;;0.80;;
34928;SDS011;21133;48.048;7.724;2022-09-21T02:13:48;8.00;;;2.50;;
34928;SDS011;21133;48.048;7.724;2022-09-21T02:16:35;1.20;;;1.20;;
34928;SDS011;21133;48.048;7.724;2022-09-21T02:21:55;3.17;;;1.40;;
34928;SDS011;21133;48.048;7.724;2022-09-21T02:24:24;2.33;;;1.20;;
34928;SDS011;21133;48.048;7.724;2022-09-21T02:26:54;1.57;;;1.20;;
34928;SDS011;21133;48.048;7.724;2022-09-21T02:29:24;3.63;;;1.13;;
34928;SDS011;21133;48.048;7.724;2022-09-21T02:31:58;1.77;;;1.07;;
34928;SDS011;21133;48.048;7.724;2022-09-21T02:34:33;1.80;;;1.40;;
34928;SDS011;21133;48.048;7.724;2022-09-21T02:39:57;2.00;;;1.20;;
34928;SDS011;21133;48.048;7.724;2022-09-21T02:42:25;1.93;;;1.63;;
34928;SDS011;21133;48.048;7.724;2022-09-21T02:47:40;6.17;;;2.30;;
34928;SDS011;21133;48.048;7.724;2022-09-21T02:50:11;1.50;;;1.40;;
34928;SDS011;21133;48.048;7.724;2022-09-21T02:52:39;1.87;;;0.93;;
34928;SDS011;21133;48.048;7.724;2022-09-21T02:55:05;1.40;;;1.30;;
34928;SDS011;21133;48.048;7.724;2022-09-21T02:57:32;3.20;;;3.00;;
34928;SDS011;21133;48.048;7.724;2022-09-21T02:59:59;2.60;;;2.40;;
34928;SDS011;21133;48.048;7.724;2022-09-21T03:02:34;2.33;;;2.13;;
34928;SDS011;21133;48.048;7.724;2022-09-21T03:05:00;1.83;;;1.60;;
34928;SDS011;21133;48.048;7.724;2022-09-21T03:07:26;2.23;;;1.00;;
34928;SDS011;21133;48.048;7.724;2022-09-21T03:09:52;1.90;;;1.13;;
34928;SDS011;21133;48.048;7.724;2022-09-21T03:12:18;1.63;;;1.23;;
34928;SDS011;21133;48.048;7.724;2022-09-21T03:14:46;2.20;;;1.63;;
34928;SDS011;21133;48.048;7.724;2022-09-21T03:17:12;0.90;;;0.90;;
34928;SDS011;21133;48.048;7.724;2022-09-21T03:19:38;2.80;;;2.60;;
34928;SDS011;21133;48.048;7.724;2022-09-21T03:22:04;2.00;;;1.33;;
34928;SDS011;21133;48.048;7.724;2022-09-21T03:24:30;1.60;;;1.50;;
34928;SDS011;21133;48.048;7.724;2022-09-21T03:27:25;3.60;;;1.43;;
34928;SDS011;21133;48.048;7.724;2022-09-21T03:29:51;1.20;;;1.20;;
34928;SDS011;21133;48.048;7.724;2022-09-21T03:32:17;1.70;;;1.60;;
34928;SDS011;21133;48.048;7.724;2022-09-21T03:34:43;1.77;;;1.67;;
34928;SDS011;21133;48.048;7.724;2022-09-21T03:37:10;1.40;;;1.30;;
34928;SDS011;21133;48.048;7.724;2022-09-21T03:39:36;1.20;;;1.10;;
34928;SDS011;21133;48.048;7.724;2022-09-21T03:42:02;2.00;;;1.63;;
34928;SDS011;21133;48.048;7.724;2022-09-21T03:44:28;3.80;;;1.43;;
34928;SDS011;21133;48.048;7.724;2022-09-21T03:46:54;1.17;;;1.17;;
34928;SDS011;21133;48.048;7.724;2022-09-21T03:49:22;1.83;;;1.80;;
34928;SDS011;21133;48.048;7.724;2022-09-21T03:51:48;1.37;;;1.37;;
34928;SDS011;21133;48.048;7.724;2022-09-21T03:54:14;1.67;;;1.57;;
34928;SDS011;21133;48.048;7.724;2022-09-21T03:56:40;4.20;;;1.40;;
34928;SDS011;21133;48.048;7.724;2022-09-21T03:59:06;1.43;;;1.27;;
34928;SDS011;21133;48.048;7.724;2022-09-21T04:01:32;5.93;;;2.00;;
34928;SDS011;21133;48.048;7.724;2022-09-21T04:03:58;1.90;;;1.20;;
34928;SDS011;21133;48.048;7.724;2022-09-21T04:06:24;1.67;;;1.57;;
34928;SDS011;21133;48.048;7.724;2022-09-21T04:08:50;1.70;;;1.30;;
34928;SDS011;21133;48.048;7.724;2022-09-21T04:11:18;1.47;;;1.47;;
34928;SDS011;21133;48.048;7.724;2022-09-21T04:13:48;1.30;;;1.20;;
34928;SDS011;21133;48.048;7.724;2022-09-21T04:16:15;2.13;;;1.40;;
34928;SDS011;21133;48.048;7.724;2022-09-21T04:18:41;1.20;;;1.20;;
34928;SDS011;21133;48.048;7.724;2022-09-21T04:21:07;1.90;;;1.60;;
34928;SDS011;21133;48.048;7.724;2022-09-21T04:23:33;2.50;;;1.73;;
34928;SDS011;21133;48.048;7.724;2022-09-21T04:25:59;1.97;;;1.90;;
34928;SDS011;21133;48.048;7.724;2022-09-21T04:28:26;1.80;;;1.63;;
34928;SDS011;21133;48.048;7.724;2022-09-21T04:30:53;1.97;;;1.87;;
34928;SDS011;21133;48.048;7.724;2022-09-21T04:33:19;1.50;;;1.50;;
34928;SDS011;21133;48.048;7.724;2022-09-21T04:35:47;2.10;;;2.00;;
34928;SDS011;21133;48.048;7.724;2022-09-21T04:38:13;1.47;;;1.37;;
34928;SDS011;21133;48.048;7.724;2022-09-21T04:40:39;1.37;;;1.37;;
34928;SDS011;21133;48.048;7.724;2022-09-21T04:43:05;8.57;;;2.83;;
34928;SDS011;21133;48.048;7.724;2022-09-21T04:45:31;2.10;;;2.00;;
34928;SDS011;21133;48.048;7.724;2022-09-21T04:47:58;2.73;;;2.53;;
34928;SDS011;21133;48.048;7.724;2022-09-21T04:50:24;2.20;;;2.00;;
34928;SDS011;21133;48.048;7.724;2022-09-21T04:52:50;1.33;;;1.23;;
34928;SDS011;21133;48.048;7.724;2022-09-21T04:55:16;5.90;;;1.50;;
34928;SDS011;21133;48.048;7.724;2022-09-21T04:57:43;1.70;;;1.60;;
34928;SDS011;21133;48.048;7.724;2022-09-21T05:00:09;1.97;;;1.80;;
34928;SDS011;21133;48.048;7.724;2022-09-21T05:02:35;3.27;;;2.40;;
34928;SDS011;21133;48.048;7.724;2022-09-21T05:05:02;4.33;;;1.90;;
34928;SDS011;21133;48.048;7.724;2022-09-21T05:07:28;2.77;;;1.90;;
34928;SDS011;21133;48.048;7.724;2022-09-21T05:09:54;2.60;;;2.50;;
34928;SDS011;21133;48.048;7.724;2022-09-21T05:12:26;5.13;;;3.90;;
34928;SDS011;21133;48.048;7.724;2022-09-21T05:14:52;5.83;;;3.37;;
34928;SDS011;21133;48.048;7.724;2022-09-21T05:17:19;2.67;;;2.27;;
34928;SDS011;21133;48.048;7.724;2022-09-21T05:19:47;2.30;;;2.20;;
34928;SDS011;21133;48.048;7.724;2022-09-21T05:22:13;3.20;;;2.10;;
34928;SDS011;21133;48.048;7.724;2022-09-21T05:24:39;2.30;;;2.30;;
34928;SDS011;21133;48.048;7.724;2022-09-21T05:27:05;3.13;;;2.27;;
34928;SDS011;21133;48.048;7.724;2022-09-21T05:29:31;1.80;;;1.70;;
34928;SDS011;21133;48.048;7.724;2022-09-21T05:40:08;4.90;;;4.13;;
34928;SDS011;21133;48.048;7.724;2022-09-21T05:42:35;2.53;;;2.43;;
34928;SDS011;21133;48.048;7.724;2022-09-21T05:45:01;1.57;;;1.57;;
34928;SDS011;21133;48.048;7.724;2022-09-21T05:47:38;1.57;;;1.40;;
34928;SDS011;21133;48.048;7.724;2022-09-21T05:50:13;2.20;;;1.77;;
34928;SDS011;21133;48.048;7.724;2022-09-21T05:52:49;8.47;;;2.60;;
34928;SDS011;21133;48.048;7.724;2022-09-21T06:00:22;2.90;;;2.80;;
34928;SDS011;21133;48.048;7.724;2022-09-21T06:05:23;2.60;;;2.60;;
34928;SDS011;21133;48.048;7.724;2022-09-21T06:07:49;3.53;;;3.40;;
34928;SDS011;21133;48.048;7.724;2022-09-21T06:10:15;3.93;;;3.80;;
34928;SDS011;21133;48.048;7.724;2022-09-21T06:12:41;5.87;;;4.10;;
34928;SDS011;21133;48.048;7.724;2022-09-21T06:15:12;4.33;;;4.23;;
34928;SDS011;21133;48.048;7.724;2022-09-21T06:17:38;4.57;;;4.27;;
34928;SDS011;21133;48.048;7.724;2022-09-21T06:20:04;3.57;;;3.37;;
34928;SDS011;21133;48.048;7.724;2022-09-21T06:22:31;3.90;;;3.70;;
34928;SDS011;21133;48.048;7.724;2022-09-21T06:24:57;5.40;;;4.10;;
34928;SDS011;21133;48.048;7.724;2022-09-21T06:27:23;4.50;;;3.90;;
34928;SDS011;21133;48.048;7.724;2022-09-21T06:29:49;3.60;;;3.50;;
34928;SDS011;21133;48.048;7.724;2022-09-21T06:32:16;4.30;;;3.90;;
34928;SDS011;21133;48.048;7.724;2022-09-21T06:34:42;4.43;;;4.20;;
34928;SDS011;21133;48.048;7.724;2022-09-21T06:37:08;2.97;;;2.87;;
34928;SDS011;21133;48.048;7.724;2022-09-21T06:39:35;3.87;;;3.67;;
34928;SDS011;21133;48.048;7.724;2022-09-21T06:42:01;4.87;;;4.47;;
34928;SDS011;21133;48.048;7.724;2022-09-21T06:44:27;4.57;;;4.37;;
34928;SDS011;21133;48.048;7.724;2022-09-21T06:46:53;4.30;;;4.00;;
34928;SDS011;21133;48.048;7.724;2022-09-21T06:49:19;1.73;;;1.73;;
34928;SDS011;21133;48.048;7.724;2022-09-21T06:51:46;4.43;;;4.23;;
34928;SDS011;21133;48.048;7.724;2022-09-21T06:54:12;3.27;;;3.17;;
34928;SDS011;21133;48.048;7.724;2022-09-21T06:56:38;3.00;;;2.90;;
34928;SDS011;21133;48.048;7.724;2022-09-21T06:59:07;7.57;;;4.60;;
34928;SDS011;21133;48.048;7.724;2022-09-21T07:01:33;2.10;;;2.10;;
34928;SDS011;21133;48.048;7.724;2022-09-21T07:03:59;4.70;;;4.30;;
34928;SDS011;21133;48.048;7.724;2022-09-21T07:06:25;3.97;;;3.77;;
34928;SDS011;21133;48.048;7.724;2022-09-21T07:08:51;4.33;;;3.93;;
34928;SDS011;21133;48.048;7.724;2022-09-21T07:11:17;4.23;;;3.93;;
34928;SDS011;21133;48.048;7.724;2022-09-21T07:13:43;4.00;;;3.57;;
34928;SDS011;21133;48.048;7.724;2022-09-21T07:16:10;3.33;;;3.23;;
34928;SDS011;21133;48.048;7.724;2022-09-21T07:18:36;3.00;;;2.80;;
34928;SDS011;21133;48.048;7.724;2022-09-21T07:21:07;3.07;;;2.87;;
34928;SDS011;21133;48.048;7.724;2022-09-21T07:23:34;5.57;;;4.30;;
34928;SDS011;21133;48.048;7.724;2022-09-21T07:26:07;3.80;;;3.27;;
34928;SDS011;21133;48.048;7.724;2022-09-21T07:28:34;2.90;;;2.80;;
34928;SDS011;21133;48.048;7.724;2022-09-21T07:31:07;2.60;;;2.50;;
34928;SDS011;21133;48.048;7.724;2022-09-21T07:33:33;3.67;;;3.47;;
34928;SDS011;21133;48.048;7.724;2022-09-21T07:36:00;3.70;;;3.40;;
34928;SDS011;21133;48.048;7.724;2022-09-21T07:38:28;3.53;;;3.33;;
34928;SDS011;21133;48.048;7.724;2022-09-21T07:40:54;3.37;;;3.17;;
34928;SDS011;21133;48.048;7.724;2022-09-21T07:43:19;2.70;;;2.50;;
34928;SDS011;21133;48.048;7.724;2022-09-21T07:45:52;3.03;;;2.73;;
34928;SDS011;21133;48.048;7.724;2022-09-21T07:48:20;3.47;;;3.17;;
34928;SDS011;21133;48.048;7.724;2022-09-21T07:50:46;3.20;;;3.00;;
34928;SDS011;21133;48.048;7.724;2022-09-21T07:53:13;3.83;;;3.20;;
34928;SDS011;21133;48.048;7.724;2022-09-21T07:55:41;3.20;;;2.90;;
34928;SDS011;21133;48.048;7.724;2022-09-21T07:58:07;4.70;;;3.00;;
34928;SDS011;21133;48.048;7.724;2022-09-21T08:00:52;6.37;;;3.87;;
34928;SDS011;21133;48.048;7.724;2022-09-21T08:03:18;5.30;;;3.07;;
34928;SDS011;21133;48.048;7.724;2022-09-21T08:05:44;2.53;;;2.50;;
34928;SDS011;21133;48.048;7.724;2022-09-21T08:08:10;7.13;;;2.70;;
34928;SDS011;21133;48.048;7.724;2022-09-21T08:10:36;3.30;;;3.00;;
34928;SDS011;21133;48.048;7.724;2022-09-21T08:13:03;2.83;;;2.67;;
34928;SDS011;21133;48.048;7.724;2022-09-21T08:15:29;3.03;;;2.87;;
34928;SDS011;21133;48.048;7.724;2022-09-21T08:17:55;2.63;;;2.57;;
34928;SDS011;21133;48.048;7.724;2022-09-21T08:20:22;2.80;;;2.60;;
34928;SDS011;21133;48.048;7.724;2022-09-21T08:22:48;2.00;;;2.00;;
34928;SDS011;21133;48.048;7.724;2022-09-21T08:25:17;4.00;;;3.20;;
34928;SDS011;21133;48.048;7.724;2022-09-21T08:27:43;2.87;;;2.60;;
34928;SDS011;21133;48.048;7.724;2022-09-21T08:30:09;6.60;;;3.27;;
34928;SDS011;21133;48.048;7.724;2022-09-21T08:32:37;2.00;;;1.90;;
34928;SDS011;21133;48.048;7.724;2022-09-21T08:35:03;2.57;;;1.87;;
34928;SDS011;21133;48.048;7.724;2022-09-21T08:37:29;2.30;;;2.20;;
34928;SDS011;21133;48.048;7.724;2022-09-21T08:39:55;5.10;;;2.43;;
34928;SDS011;21133;48.048;7.724;2022-09-21T08:45:03;2.50;;;2.27;;
34928;SDS011;21133;48.048;7.724;2022-09-21T08:47:35;2.23;;;2.10;;
34928;SDS011;21133;48.048;7.724;2022-09-21T08:50:02;2.60;;;2.50;;
34928;SDS011;21133;48.048;7.724;2022-09-21T08:52:29;6.37;;;3.07;;
34928;SDS011;21133;48.048;7.724;2022-09-21T08:55:00;2.90;;;2.70;;
34928;SDS011;21133;48.048;7.724;2022-09-21T08:57:29;2.97;;;2.73;;
34928;SDS011;21133;48.048;7.724;2022-09-21T08:59:55;5.43;;;4.77;;
34928;SDS011;21133;48.048;7.724;2022-09-21T09:02:33;3.50;;;3.07;;
34928;SDS011;21133;48.048;7.724;2022-09-21T09:08:09;3.30;;;2.97;;
34928;SDS011;21133;48.048;7.724;2022-09-21T09:10:43;3.00;;;2.73;;
34928;SDS011;21133;48.048;7.724;2022-09-21T09:18:42;2.20;;;2.03;;
34928;SDS011;21133;48.048;7.724;2022-09-21T09:24:09;2.87;;;2.20;;
34928;SDS011;21133;48.048;7.724;2022-09-21T09:26:35;2.13;;;2.03;;
34928;SDS011;21133;48.048;7.724;2022-09-21T09:29:10;2.93;;;2.13;;
34928;SDS011;21133;48.048;7.724;2022-09-21T09:31:38;2.13;;;2.03;;
34928;SDS011;21133;48.048;7.724;2022-09-21T09:34:12;6.07;;;2.47;;
34928;SDS011;21133;48.048;7.724;2022-09-21T09:36:45;2.17;;;1.50;;
34928;SDS011;21133;48.048;7.724;2022-09-21T09:39:12;5.00;;;2.17;;
34928;SDS011;21133;48.048;7.724;2022-09-21T09:52:18;2.20;;;1.90;;
34928;SDS011;21133;48.048;7.724;2022-09-21T09:54:44;4.47;;;1.83;;
34928;SDS011;21133;48.048;7.724;2022-09-21T09:57:10;1.73;;;1.63;;
34928;SDS011;21133;48.048;7.724;2022-09-21T09:59:47;1.63;;;1.53;;
34928;SDS011;21133;48.048;7.724;2022-09-21T10:02:24;3.13;;;1.90;;
34928;SDS011;21133;48.048;7.724;2022-09-21T10:07:38;2.03;;;1.83;;
34928;SDS011;21133;48.048;7.724;2022-09-21T10:12:44;3.13;;;1.60;;
34928;SDS011;21133;48.048;7.724;2022-09-21T10:15:11;3.20;;;1.50;;
34928;SDS011;21133;48.048;7.724;2022-09-21T10:17:37;2.47;;;1.33;;
34928;SDS011;21133;48.048;7.724;2022-09-21T10:20:04;13.30;;;1.87;;
34928;SDS011;21133;48.048;7.724;2022-09-21T10:22:32;2.90;;;1.77;;
34928;SDS011;21133;48.048;7.724;2022-09-21T10:24:58;2.00;;;1.43;;
34928;SDS011;21133;48.048;7.724;2022-09-21T10:29:51;1.60;;;1.50;;
34928;SDS011;21133;48.048;7.724;2022-09-21T10:32:22;4.73;;;1.53;;
34928;SDS011;21133;48.048;7.724;2022-09-21T10:35:11;1.60;;;1.50;;
34928;SDS011;21133;48.048;7.724;2022-09-21T10:38:07;2.93;;;0.90;;
34928;SDS011;21133;48.048;7.724;2022-09-21T10:40:37;1.13;;;1.13;;
34928;SDS011;21133;48.048;7.724;2022-09-21T10:43:04;1.53;;;1.43;;
34928;SDS011;21133;48.048;7.724;2022-09-21T10:45:33;1.50;;;1.50;;
34928;SDS011;21133;48.048;7.724;2022-09-21T10:48:11;3.27;;;1.00;;
34928;SDS011;21133;48.048;7.724;2022-09-21T10:50:43;1.07;;;1.07;;
34928;SDS011;21133;48.048;7.724;2022-09-21T10:55:41;2.10;;;1.13;;
34928;SDS011;21133;48.048;7.724;2022-09-21T10:58:08;3.50;;;1.20;;
34928;SDS011;21133;48.048;7.724;2022-09-21T11:00:39;0.90;;;0.83;;
34928;SDS011;21133;48.048;7.724;2022-09-21T11:03:52;1.73;;;1.40;;
34928;SDS011;21133;48.048;7.724;2022-09-21T11:05:52;3.70;;;1.17;;
34928;SDS011;21133;48.048;7.724;2022-09-21T11:08:33;1.17;;;1.07;;
34928;SDS011;21133;48.048;7.724;2022-09-21T11:11:23;6.30;;;1.40;;
34928;SDS011;21133;48.048;7.724;2022-09-21T11:14:03;1.57;;;0.83;;
34928;SDS011;21133;48.048;7.724;2022-09-21T11:19:21;1.37;;;0.80;;
34928;SDS011;21133;48.048;7.724;2022-09-21T11:34:57;57.60;;;5.53;;
34928;SDS011;21133;48.048;7.724;2022-09-21T11:42:39;1.40;;;0.63;;
34928;SDS011;21133;48.048;7.724;2022-09-21T11:45:09;2.77;;;0.90;;
34928;SDS011;21133;48.048;7.724;2022-09-21T11:47:52;2.40;;;0.90;;
34928;SDS011;21133;48.048;7.724;2022-09-21T11:50:25;0.83;;;0.83;;
34928;SDS011;21133;48.048;7.724;2022-09-21T11:55:33;1.70;;;0.70;;
34928;SDS011;21133;48.048;7.724;2022-09-21T11:58:03;0.80;;;0.60;;
34928;SDS011;21133;48.048;7.724;2022-09-21T12:00:39;1.47;;;0.80;;
34928;SDS011;21133;48.048;7.724;2022-09-21T12:03:14;6.30;;;1.20;;
34928;SDS011;21133;48.048;7.724;2022-09-21T12:05:49;0.80;;;0.80;;
34928;SDS011;21133;48.048;7.724;2022-09-21T12:11:24;2.00;;;0.60;;
34928;SDS011;21133;48.048;7.724;2022-09-21T12:16:34;0.90;;;0.90;;
34928;SDS011;21133;48.048;7.724;2022-09-21T12:21:49;13.43;;;1.30;;
34928;SDS011;21133;48.048;7.724;2022-09-21T12:24:17;1.13;;;1.13;;
34928;SDS011;21133;48.048;7.724;2022-09-21T12:26:46;1.47;;;1.10;;
34928;SDS011;21133;48.048;7.724;2022-09-21T12:29:16;0.87;;;0.83;;
34928;SDS011;21133;48.048;7.724;2022-09-21T12:34:17;0.70;;;0.70;;
34928;SDS011;21133;48.048;7.724;2022-09-21T12:36:46;0.60;;;0.60;;
34928;SDS011;21133;48.048;7.724;2022-09-21T12:44:38;0.80;;;0.80;;
34928;SDS011;21133;48.048;7.724;2022-09-21T12:47:15;1.80;;;0.80;;
34928;SDS011;21133;48.048;7.724;2022-09-21T12:49:46;0.97;;;0.97;;
34928;SDS011;21133;48.048;7.724;2022-09-21T12:52:18;1.63;;;0.90;;
34928;SDS011;21133;48.048;7.724;2022-09-21T12:54:47;0.50;;;0.50;;
34928;SDS011;21133;48.048;7.724;2022-09-21T12:57:19;3.50;;;0.80;;
34928;SDS011;21133;48.048;7.724;2022-09-21T13:10:14;9.27;;;1.13;;
34928;SDS011;21133;48.048;7.724;2022-09-21T13:12:41;2.57;;;0.60;;
34928;SDS011;21133;48.048;7.724;2022-09-21T13:15:22;1.43;;;0.83;;
34928;SDS011;21133;48.048;7.724;2022-09-21T13:18:01;1.27;;;0.73;;
34928;SDS011;21133;48.048;7.724;2022-09-21T13:20:34;5.83;;;1.07;;
34928;SDS011;21133;48.048;7.724;2022-09-21T13:23:00;0.53;;;0.53;;
34928;SDS011;21133;48.048;7.724;2022-09-21T13:25:28;4.10;;;0.93;;
34928;SDS011;21133;48.048;7.724;2022-09-21T13:30:45;2.43;;;1.10;;
34928;SDS011;21133;48.048;7.724;2022-09-21T13:51:50;0.93;;;0.90;;
34928;SDS011;21133;48.048;7.724;2022-09-21T13:54:18;1.20;;;1.10;;
34928;SDS011;21133;48.048;7.724;2022-09-21T13:56:45;1.10;;;0.97;;
34928;SDS011;21133;48.048;7.724;2022-09-21T13:59:19;3.17;;;1.23;;
34928;SDS011;21133;48.048;7.724;2022-09-21T14:01:46;1.37;;;0.93;;
34928;SDS011;21133;48.048;7.724;2022-09-21T14:04:21;0.63;;;0.63;;
34928;SDS011;21133;48.048;7.724;2022-09-21T14:06:48;0.53;;;0.53;;
34928;SDS011;21133;48.048;7.724;2022-09-21T14:09:20;0.63;;;0.63;;
34928;SDS011;21133;48.048;7.724;2022-09-21T14:11:51;0.93;;;0.80;;
34928;SDS011;21133;48.048;7.724;2022-09-21T14:21:40;0.83;;;0.83;;
34928;SDS011;21133;48.048;7.724;2022-09-21T14:24:35;2.80;;;1.23;;
34928;SDS011;21133;48.048;7.724;2022-09-21T14:29:37;0.97;;;0.97;;
34928;SDS011;21133;48.048;7.724;2022-09-21T14:32:06;0.70;;;0.70;;
34928;SDS011;21133;48.048;7.724;2022-09-21T14:34:38;1.30;;;0.50;;
34928;SDS011;21133;48.048;7.724;2022-09-21T14:37:14;1.10;;;0.70;;
34928;SDS011;21133;48.048;7.724;2022-09-21T14:39:43;0.93;;;0.93;;
34928;SDS011;21133;48.048;7.724;2022-09-21T14:42:12;1.13;;;0.60;;
34928;SDS011;21133;48.048;7.724;2022-09-21T14:44:39;0.57;;;0.57;;
34928;SDS011;21133;48.048;7.724;2022-09-21T14:52:36;0.47;;;0.47;;
34928;SDS011;21133;48.048;7.724;2022-09-21T14:58:03;1.07;;;0.50;;
34928;SDS011;21133;48.048;7.724;2022-09-21T15:00:37;0.50;;;0.40;;
34928;SDS011;21133;48.048;7.724;2022-09-21T15:05:43;0.60;;;0.60;;
34928;SDS011;21133;48.048;7.724;2022-09-21T15:11:25;0.40;;;0.40;;
34928;SDS011;21133;48.048;7.724;2022-09-21T15:16:37;0.63;;;0.57;;
34928;SDS011;21133;48.048;7.724;2022-09-21T15:19:11;1.83;;;0.80;;
34928;SDS011;21133;48.048;7.724;2022-09-21T15:21:42;0.70;;;0.70;;
34928;SDS011;21133;48.048;7.724;2022-09-21T15:24:09;1.27;;;0.77;;
34928;SDS011;21133;48.048;7.724;2022-09-21T15:26:37;0.97;;;0.80;;
34928;SDS011;21133;48.048;7.724;2022-09-21T15:29:04;2.50;;;0.70;;
34928;SDS011;21133;48.048;7.724;2022-09-21T15:31:36;0.93;;;0.60;;
34928;SDS011;21133;48.048;7.724;2022-09-21T15:34:03;0.60;;;0.60;;
34928;SDS011;21133;48.048;7.724;2022-09-21T15:36:35;0.40;;;0.40;;
34928;SDS011;21133;48.048;7.724;2022-09-21T15:39:01;0.80;;;0.80;;
34928;SDS011;21133;48.048;7.724;2022-09-21T15:41:44;1.37;;;1.20;;
34928;SDS011;21133;48.048;7.724;2022-09-21T15:44:21;1.03;;;1.03;;
34928;SDS011;21133;48.048;7.724;2022-09-21T15:46:49;0.40;;;0.40;;
34928;SDS011;21133;48.048;7.724;2022-09-21T15:49:19;0.47;;;0.43;;
34928;SDS011;21133;48.048;7.724;2022-09-21T15:51:46;0.50;;;0.50;;
34928;SDS011;21133;48.048;7.724;2022-09-21T15:54:22;0.53;;;0.53;;
34928;SDS011;21133;48.048;7.724;2022-09-21T15:56:50;0.40;;;0.40;;
34928;SDS011;21133;48.048;7.724;2022-09-21T15:59:18;0.50;;;0.50;;
34928;SDS011;21133;48.048;7.724;2022-09-21T16:01:47;1.13;;;0.80;;
34928;SDS011;21133;48.048;7.724;2022-09-21T16:04:18;1.10;;;1.00;;
34928;SDS011;21133;48.048;7.724;2022-09-21T16:06:47;2.93;;;1.30;;
34928;SDS011;21133;48.048;7.724;2022-09-21T16:11:52;0.70;;;0.47;;
34928;SDS011;21133;48.048;7.724;2022-09-21T16:14:19;0.40;;;0.40;;
34928;SDS011;21133;48.048;7.724;2022-09-21T16:17:05;1.07;;;0.50;;
34928;SDS011;21133;48.048;7.724;2022-09-21T16:19:39;0.60;;;0.60;;
34928;SDS011;21133;48.048;7.724;2022-09-21T16:22:11;1.30;;;0.90;;
34928;SDS011;21133;48.048;7.724;2022-09-21T16:24:44;0.40;;;0.40;;
34928;SDS011;21133;48.048;7.724;2022-09-21T16:27:15;0.87;;;0.77;;
34928;SDS011;21133;48.048;7.724;2022-09-21T16:29:42;1.80;;;0.90;;
34928;SDS011;21133;48.048;7.724;2022-09-21T16:34:45;0.40;;;0.40;;
34928;SDS011;21133;48.048;7.724;2022-09-21T16:39:50;1.63;;;0.80;;
34928;SDS011;21133;48.048;7.724;2022-09-21T16:42:16;0.80;;;0.80;;
34928;SDS011;21133;48.048;7.724;2022-09-21T16:44:43;0.60;;;0.60;;
34928;SDS011;21133;48.048;7.724;2022-09-21T16:47:22;0.90;;;0.90;;
34928;SDS011;21133;48.048;7.724;2022-09-21T16:49:50;0.60;;;0.60;;
34928;SDS011;21133;48.048;7.724;2022-09-21T16:52:19;1.70;;;0.93;;
34928;SDS011;21133;48.048;7.724;2022-09-21T16:54:45;0.80;;;0.80;;
34928;SDS011;21133;48.048;7.724;2022-09-21T16:57:13;0.90;;;0.90;;
34928;SDS011;21133;48.048;7.724;2022-09-21T16:59:39;0.53;;;0.53;;
34928;SDS011;21133;48.048;7.724;2022-09-21T17:02:05;2.40;;;2.30;;
34928;SDS011;21133;48.048;7.724;2022-09-21T17:04:31;1.27;;;1.17;;
34928;SDS011;21133;48.048;7.724;2022-09-21T17:06:58;1.57;;;1.37;;
34928;SDS011;21133;48.048;7.724;2022-09-21T17:11:57;0.60;;;0.60;;
34928;SDS011;21133;48.048;7.724;2022-09-21T17:14:25;0.93;;;0.67;;
34928;SDS011;21133;48.048;7.724;2022-09-21T17:16:52;0.40;;;0.40;;
34928;SDS011;21133;48.048;7.724;2022-09-21T17:19:19;0.40;;;0.40;;
34928;SDS011;21133;48.048;7.724;2022-09-21T17:21:46;1.13;;;0.90;;
34928;SDS011;21133;48.048;7.724;2022-09-21T17:24:12;1.33;;;0.90;;
34928;SDS011;21133;48.048;7.724;2022-09-21T17:26:40;0.80;;;0.80;;
34928;SDS011;21133;48.048;7.724;2022-09-21T17:29:25;0.60;;;0.60;;
34928;SDS011;21133;48.048;7.724;2022-09-21T17:31:55;4.63;;;1.40;;
34928;SDS011;21133;48.048;7.724;2022-09-21T17:34:22;1.20;;;1.10;;
34928;SDS011;21133;48.048;7.724;2022-09-21T17:36:49;0.60;;;0.50;;
34928;SDS011;21133;48.048;7.724;2022-09-21T17:39:15;0.70;;;0.70;;
34928;SDS011;21133;48.048;7.724;2022-09-21T17:41:44;0.90;;;0.90;;
34928;SDS011;21133;48.048;7.724;2022-09-21T17:44:16;1.80;;;0.70;;
34928;SDS011;21133;48.048;7.724;2022-09-21T17:46:57;0.70;;;0.70;;
34928;SDS011;21133;48.048;7.724;2022-09-21T17:49:25;0.60;;;0.60;;
34928;SDS011;21133;48.048;7.724;2022-09-21T17:51:51;1.60;;;0.67;;
34928;SDS011;21133;48.048;7.724;2022-09-21T17:54:36;2.20;;;1.10;;
34928;SDS011;21133;48.048;7.724;2022-09-21T17:59:30;0.60;;;0.60;;